Time;durP1;ratioP1;P1;durP2;ratioP2;P2;SDS_P1;SDS_P2;PMS_P1;PMS_P2;Temp;Humidity;BMP_temperature;BMP_pressure;BME280_temperature;BME280_humidity;BME280_pressure;Samples;Min_cycle;Max_cycle;Signal;HPM_P1;HPM_P2
2023/05/01 00:00:32;;;;;;;;;14.00;12.20;;;;;8.65;62.71;100064.84;5116000;28;8851;-86
2023/05/01 00:02:59;;;;;;;;;11.60;10.00;;;;;8.61;62.59;100059.84;5115863;28;9543;-86
2023/05/01 00:05:27;;;;;;;;;7.20;6.40;;;;;8.59;62.85;100061.78;5117655;28;8832;-86
2023/05/01 00:07:55;;;;;;;;;8.20;8.20;;;;;8.58;62.96;100066.22;5119846;28;8828;-86
2023/05/01 00:10:22;;;;;;;;;9.00;9.00;;;;;8.58;62.56;100058.25;5119719;28;8848;-86
2023/05/01 00:12:50;;;;;;;;;9.00;9.00;;;;;8.58;62.52;100055.59;5119796;28;8839;-86
2023/05/01 00:15:18;;;;;;;;;5.20;4.00;;;;;8.59;62.65;100051.16;5119759;28;8924;-86
2023/05/01 00:17:46;;;;;;;;;7.40;6.60;;;;;8.60;62.82;100052.84;5119302;28;8827;-86
2023/05/01 00:20:14;;;;;;;;;7.00;6.20;;;;;8.59;62.62;100044.03;5119350;28;8855;-86
2023/05/01 00:22:41;;;;;;;;;9.00;9.00;;;;;8.60;62.68;100039.59;5119748;28;8847;-86
2023/05/01 00:25:10;;;;;;;;;9.80;9.40;;;;;8.58;62.63;100036.19;5119486;28;8828;-86
2023/05/01 00:27:38;;;;;;;;;7.00;7.00;;;;;8.56;62.73;100030.97;5119817;28;8867;-86
2023/05/01 00:30:06;;;;;;;;;11.20;10.80;;;;;8.55;62.58;100031.94;5119652;28;8866;-86
2023/05/01 00:32:34;;;;;;;;;6.00;5.60;;;;;8.55;62.57;100028.44;5119637;28;8828;-86
2023/05/01 00:35:02;;;;;;;;;7.00;7.00;;;;;8.54;62.76;100019.63;5119336;28;8920;-86
2023/05/01 00:37:31;;;;;;;;;7.40;6.00;;;;;8.53;62.64;100017.06;5119029;28;8828;-86
2023/05/01 00:39:58;;;;;;;;;6.60;6.00;;;;;8.52;62.74;100021.53;5118858;28;9021;-86
2023/05/01 00:42:26;;;;;;;;;4.40;4.40;;;;;8.51;63.07;100016.34;5119430;28;8851;-86
2023/05/01 00:44:54;;;;;;;;;7.00;7.00;;;;;8.49;63.02;100007.63;5119822;28;8859;-86
2023/05/01 00:47:21;;;;;;;;;7.40;6.20;;;;;8.48;63.04;100011.22;5118893;28;8831;-86
2023/05/01 00:49:50;;;;;;;;;10.00;10.00;;;;;8.46;62.88;100007.84;5118621;28;8866;-86
2023/05/01 00:52:17;;;;;;;;;10.80;9.60;;;;;8.44;62.78;100007.13;5119437;28;8831;-86
2023/05/01 00:54:50;;;;;;;;;14.20;10.80;;;;;8.43;62.69;100003.59;5119051;28;8839;-86
2023/05/01 00:57:18;;;;;;;;;7.00;6.40;;;;;8.41;62.46;99997.56;5118933;28;8836;-86
2023/05/01 00:59:45;;;;;;;;;9.80;8.80;;;;;8.37;63.07;99993.41;5118909;28;8848;-86
2023/05/01 01:02:13;;;;;;;;;9.40;9.40;;;;;8.33;63.39;99997.25;5118659;28;8887;-86
2023/05/01 01:04:41;;;;;;;;;7.80;7.80;;;;;8.26;63.28;99987.16;5118688;28;8844;-86
2023/05/01 01:07:09;;;;;;;;;8.60;7.00;;;;;8.21;63.26;99991.94;5118449;28;8824;-86
2023/05/01 01:09:37;;;;;;;;;6.00;5.60;;;;;8.15;63.46;99987.84;5118426;28;8827;-86
2023/05/01 01:12:04;;;;;;;;;9.00;9.00;;;;;8.10;63.49;99983.84;5119087;28;8843;-86
2023/05/01 01:14:33;;;;;;;;;6.60;6.60;;;;;8.06;63.71;99972.59;5118968;28;8831;-86
2023/05/01 01:17:00;;;;;;;;;6.80;6.20;;;;;8.02;63.70;99973.78;5117770;28;8847;-86
2023/05/01 01:19:28;;;;;;;;;6.40;6.00;;;;;8.01;63.70;99973.88;5118716;28;8836;-87
2023/05/01 01:21:56;;;;;;;;;2.60;1.80;;;;;7.97;63.74;99967.94;5118333;28;9586;-86
2023/05/01 01:24:23;;;;;;;;;5.20;3.60;;;;;7.95;63.60;99967.19;5118465;28;8908;-86
2023/05/01 01:26:52;;;;;;;;;6.00;5.60;;;;;7.94;63.84;99962.84;5118399;28;8836;-86
2023/05/01 01:29:20;;;;;;;;;6.80;6.20;;;;;7.89;64.00;99964.94;5117387;28;8900;-86
2023/05/01 01:31:48;;;;;;;;;9.00;6.80;;;;;7.86;63.57;99965.16;5116406;28;8827;-86
2023/05/01 01:34:15;;;;;;;;;3.20;3.20;;;;;7.83;64.11;99960.06;5118332;28;8808;-86
2023/05/01 01:36:43;;;;;;;;;7.80;6.80;;;;;7.81;64.12;99966.41;5118269;28;8843;-86
2023/05/01 01:39:11;;;;;;;;;7.00;6.20;;;;;7.76;63.92;99956.13;5118057;28;8843;-87
2023/05/01 01:41:39;;;;;;;;;8.20;6.20;;;;;7.73;64.07;99964.31;5117862;28;8874;-86
2023/05/01 01:44:06;;;;;;;;;6.40;6.20;;;;;7.69;64.40;99957.50;5118711;28;8839;-86
2023/05/01 01:46:34;;;;;;;;;6.60;6.60;;;;;7.68;64.22;99955.81;5118805;28;8843;-85
2023/05/01 01:49:02;;;;;;;;;9.20;7.00;;;;;7.68;64.76;99948.81;5118432;28;8835;-85
2023/05/01 01:51:31;;;;;;;;;8.20;8.20;;;;;7.68;64.29;99946.16;5118784;28;9540;-85
2023/05/01 01:53:58;;;;;;;;;2.60;2.60;;;;;7.68;64.75;99932.91;5118577;28;8816;-86
2023/05/01 01:56:26;;;;;;;;;6.40;5.80;;;;;7.69;64.20;99930.16;5118566;28;8846;-86
2023/05/01 01:58:54;;;;;;;;;5.60;5.60;;;;;7.70;63.77;99931.84;5118669;28;8836;-86
2023/05/01 02:01:21;;;;;;;;;9.60;8.20;;;;;7.71;64.37;99928.25;5118124;28;8836;-86
2023/05/01 02:03:49;;;;;;;;;6.00;4.00;;;;;7.72;63.88;99930.81;5118482;28;8827;-86
2023/05/01 02:06:17;;;;;;;;;10.20;9.40;;;;;7.72;64.57;99929.09;5118458;28;8832;-85
2023/05/01 02:08:45;;;;;;;;;6.60;6.60;;;;;7.68;64.24;99922.31;5118190;28;8848;-85
2023/05/01 02:11:13;;;;;;;;;6.80;6.00;;;;;7.64;64.49;99920.84;5117428;28;8919;-85
2023/05/01 02:13:41;;;;;;;;;6.60;6.00;;;;;7.60;64.33;99919.34;5117861;28;8852;-85
2023/05/01 02:16:09;;;;;;;;;4.80;4.00;;;;;7.56;64.25;99920.47;5117840;28;8960;-86
2023/05/01 02:18:36;;;;;;;;;3.00;3.00;;;;;7.52;64.48;99919.00;5117621;28;8824;-86
2023/05/01 02:21:04;;;;;;;;;9.40;7.40;;;;;7.47;64.73;99910.50;5117751;28;8836;-86
2023/05/01 02:23:32;;;;;;;;;5.60;4.40;;;;;7.41;65.08;99910.91;5117690;28;8824;-86
2023/05/01 02:25:59;;;;;;;;;1.00;1.00;;;;;7.36;64.83;99900.63;5116925;28;8836;-85
2023/05/01 02:28:28;;;;;;;;;5.40;4.80;;;;;7.35;64.92;99908.69;5115142;28;8828;-85
2023/05/01 02:30:56;;;;;;;;;9.80;7.00;;;;;7.32;64.61;99899.16;5116378;28;8940;-85
2023/05/01 02:33:24;;;;;;;;;3.20;1.40;;;;;7.33;65.01;99892.91;5117139;28;8831;-86
2023/05/01 02:35:52;;;;;;;;;6.00;5.20;;;;;7.33;64.80;99903.50;5117458;28;8827;-86
2023/05/01 02:38:20;;;;;;;;;4.80;4.40;;;;;7.33;64.85;99897.34;5117972;28;8824;-86
2023/05/01 02:40:48;;;;;;;;;6.00;5.60;;;;;7.33;64.88;99892.91;5117870;28;8870;-86
2023/05/01 02:43:16;;;;;;;;;7.20;6.40;;;;;7.35;64.88;99892.81;5117767;28;8840;-86
2023/05/01 02:45:43;;;;;;;;;7.80;7.00;;;;;7.36;64.57;99886.56;5117859;28;8836;-86
2023/05/01 02:48:11;;;;;;;;;4.00;4.00;;;;;7.35;65.12;99884.88;5117217;28;8906;-86
2023/05/01 02:50:39;;;;;;;;;4.00;4.00;;;;;7.33;64.70;99877.00;5117563;28;8908;-86
2023/05/01 02:53:08;;;;;;;;;7.00;6.00;;;;;7.33;64.79;99876.16;5118000;28;8824;-86
2023/05/01 02:55:36;;;;;;;;;5.60;5.20;;;;;7.30;65.04;99874.59;5117506;28;8834;-85
2023/05/01 02:58:04;;;;;;;;;1.80;1.80;;;;;7.29;64.74;99874.69;5117552;28;8820;-86
2023/05/01 03:00:31;;;;;;;;;4.00;3.00;;;;;7.27;64.82;99873.94;5117563;28;8928;-86
2023/05/01 03:02:59;;;;;;;;;5.60;5.60;;;;;7.27;65.10;99873.94;5117337;28;8912;-85
2023/05/01 03:05:27;;;;;;;;;6.00;6.00;;;;;7.25;64.78;99860.78;5117352;28;8855;-86
2023/05/01 03:07:54;;;;;;;;;3.20;2.60;;;;;7.25;65.33;99868.75;5117739;28;8855;-86
2023/05/01 03:10:22;;;;;;;;;7.80;6.60;;;;;7.26;65.01;99856.31;5117990;28;8820;-86
2023/05/01 03:12:50;;;;;;;;;3.00;3.00;;;;;7.27;65.08;99858.06;5117421;28;8816;-85
2023/05/01 03:15:17;;;;;;;;;6.40;6.00;;;;;7.30;64.81;99855.19;5117431;28;8893;-86
2023/05/01 03:17:46;;;;;;;;;9.00;9.00;;;;;7.30;65.00;99857.84;5118074;28;8848;-84
2023/05/01 03:20:14;;;;;;;;;8.20;7.00;;;;;7.31;64.85;99854.22;5121028;28;8846;-85
2023/05/01 03:22:42;;;;;;;;;3.00;3.00;;;;;7.33;64.95;99850.53;5124517;28;8816;-85
2023/05/01 03:25:10;;;;;;;;;4.00;4.00;;;;;7.31;65.23;99844.50;5124517;28;8931;-85
2023/05/01 03:27:38;;;;;;;;;3.80;3.00;;;;;7.26;64.74;99846.59;5126311;28;8847;-85
2023/05/01 03:30:06;;;;;;;;;4.80;4.80;;;;;7.22;65.15;99849.56;5128619;28;8893;-85
2023/05/01 03:32:33;;;;;;;;;3.80;3.80;;;;;7.21;65.12;99843.41;5126137;28;8834;-84
2023/05/01 03:35:01;;;;;;;;;0.40;0.40;;;;;7.19;65.36;99839.19;5117936;28;8832;-85
2023/05/01 03:37:29;;;;;;;;;3.00;3.00;;;;;7.17;65.40;99841.94;5117368;28;8824;-85
2023/05/01 03:39:56;;;;;;;;;6.80;6.60;;;;;7.20;65.25;99833.75;5118828;28;8858;-85
2023/05/01 03:42:25;;;;;;;;;6.40;5.80;;;;;7.21;65.35;99834.63;5123229;28;8828;-85
2023/05/01 03:44:52;;;;;;;;;6.20;6.20;;;;;7.21;65.58;99832.81;5121464;28;8928;-85
2023/05/01 03:47:20;;;;;;;;;7.40;6.20;;;;;7.21;65.27;99832.81;5121658;28;8832;-85
2023/05/01 03:49:47;;;;;;;;;7.00;7.00;;;;;7.21;65.06;99832.81;5121251;28;8820;-85
2023/05/01 03:52:15;;;;;;;;;6.00;6.00;;;;;7.20;65.01;99827.63;5120622;28;8840;-85
2023/05/01 03:54:43;;;;;;;;;3.60;3.60;;;;;7.19;65.14;99824.13;5120887;28;8819;-85
2023/05/01 03:57:11;;;;;;;;;4.00;4.00;;;;;7.21;65.63;99827.50;5120430;28;8823;-85
2023/05/01 03:59:38;;;;;;;;;3.40;3.40;;;;;7.20;65.20;99820.53;5120331;28;8824;-85
2023/05/01 04:02:06;;;;;;;;;7.00;4.80;;;;;7.21;65.35;99822.22;5120309;28;8843;-85
2023/05/01 04:04:34;;;;;;;;;4.40;3.20;;;;;7.22;65.38;99812.50;5120262;28;8859;-85
2023/05/01 04:07:02;;;;;;;;;4.40;4.40;;;;;7.25;65.54;99817.56;5121040;28;8900;-85
2023/05/01 04:09:30;;;;;;;;;6.00;5.20;;;;;7.27;65.34;99815.69;5120694;28;8840;-85
2023/05/01 04:11:57;;;;;;;;;4.00;4.00;;;;;7.31;65.42;99817.16;5120445;28;8835;-85
2023/05/01 04:14:25;;;;;;;;;5.60;5.20;;;;;7.34;65.12;99809.84;5120870;28;8921;-85
2023/05/01 04:16:53;;;;;;;;;5.60;5.60;;;;;7.38;65.21;99813.13;5121318;28;8812;-86
2023/05/01 04:19:21;;;;;;;;;6.20;4.00;;;;;7.42;65.31;99815.47;5121903;28;8823;-85
2023/05/01 04:21:48;;;;;;;;;4.80;4.80;;;;;7.46;64.76;99816.09;5121021;28;8855;-85
2023/05/01 04:24:16;;;;;;;;;5.20;4.40;;;;;7.48;64.72;99806.22;5122202;28;8840;-86
2023/05/01 04:26:44;;;;;;;;;4.00;4.00;;;;;7.53;65.04;99809.41;5126094;28;8898;-85
2023/05/01 04:29:11;;;;;;;;;6.00;4.40;;;;;7.55;64.59;99805.72;5129407;28;8877;-85
2023/05/01 04:31:40;;;;;;;;;3.40;3.40;;;;;7.60;64.12;99808.03;5123186;28;8835;-85
2023/05/01 04:34:08;;;;;;;;;6.60;5.20;;;;;7.66;64.50;99802.31;5119823;28;8820;-85
2023/05/01 04:36:35;;;;;;;;;4.00;4.00;;;;;7.69;64.51;99801.13;5119066;28;8840;-85
2023/05/01 04:39:04;;;;;;;;;4.00;4.00;;;;;7.73;64.48;99799.97;5119408;28;8832;-85
2023/05/01 04:41:31;;;;;;;;;6.00;6.00;;;;;7.77;64.03;99801.44;5119191;28;8828;-85
2023/05/01 04:43:59;;;;;;;;;6.00;6.00;;;;;7.77;64.84;99795.31;5119703;28;8836;-85
2023/05/01 04:46:27;;;;;;;;;4.40;4.40;;;;;7.77;64.34;99801.44;5119781;28;8863;-85
2023/05/01 04:48:55;;;;;;;;;6.00;6.00;;;;;7.77;64.22;99801.44;5119555;28;8851;-85
2023/05/01 04:51:22;;;;;;;;;6.40;5.60;;;;;7.77;64.70;99796.16;5118505;28;8836;-85
2023/05/01 04:53:50;;;;;;;;;5.60;5.20;;;;;7.79;64.22;99804.00;5119315;28;8827;-85
2023/05/01 04:56:18;;;;;;;;;3.80;3.00;;;;;7.80;64.03;99798.59;5119083;28;8846;-85
2023/05/01 04:58:46;;;;;;;;;3.00;2.60;;;;;7.85;64.32;99801.75;5118788;28;8844;-85
2023/05/01 05:01:14;;;;;;;;;4.00;4.00;;;;;7.91;64.41;99796.03;5119137;28;8835;-85
2023/05/01 05:03:42;;;;;;;;;6.00;4.00;;;;;7.99;64.08;99798.97;5119128;28;8832;-85
2023/05/01 05:06:10;;;;;;;;;5.40;5.20;;;;;8.07;64.06;99796.63;5119392;28;8846;-85
2023/05/01 05:08:38;;;;;;;;;6.40;4.00;;;;;8.15;63.45;99802.22;5118840;28;8832;-85
2023/05/01 05:11:06;;;;;;;;;2.60;2.20;;;;;8.25;64.23;99791.81;5118949;28;8894;-85
2023/05/01 05:13:33;;;;;;;;;6.80;6.80;;;;;8.33;63.51;99790.31;5119911;28;8860;-85
2023/05/01 05:16:01;;;;;;;;;6.00;4.00;;;;;8.41;63.50;99784.44;5119865;28;8827;-85
2023/05/01 05:18:28;;;;;;;;;4.40;4.00;;;;;8.50;63.69;99795.22;5119783;28;8836;-85
2023/05/01 05:20:56;;;;;;;;;4.80;4.40;;;;;8.57;63.58;99791.16;5120367;28;8832;-85
2023/05/01 05:23:24;;;;;;;;;3.00;2.60;;;;;8.67;63.23;99796.66;5120146;28;8828;-85
2023/05/01 05:25:52;;;;;;;;;6.00;5.60;;;;;8.75;63.15;99789.78;5119862;28;8901;-85
2023/05/01 05:28:22;;;;;;;;;7.00;5.40;;;;;8.86;63.05;99786.34;5121878;28;8928;-85
2023/05/01 05:30:50;;;;;;;;;6.40;3.60;;;;;8.99;62.90;99785.31;5121104;28;8831;-85
2023/05/01 05:33:18;;;;;;;;;4.80;4.40;;;;;9.12;62.36;99788.72;5120518;28;8835;-85
2023/05/01 05:35:46;;;;;;;;;4.40;4.00;;;;;9.26;62.42;99783.19;5120381;28;8831;-85
2023/05/01 05:38:14;;;;;;;;;3.50;3.50;;;;;9.41;62.03;99784.69;5120453;28;8924;-85
2023/05/01 05:40:42;;;;;;;;;6.00;6.00;;;;;9.57;61.53;99782.50;5120877;28;8868;-85
2023/05/01 05:43:10;;;;;;;;;6.00;4.00;;;;;9.71;62.25;99784.13;5121169;28;8843;-85
2023/05/01 05:45:38;;;;;;;;;5.25;4.00;;;;;9.86;61.34;99773.09;5118423;28;8812;-86
2023/05/01 05:48:05;;;;;;;;;4.00;3.75;;;;;10.02;61.00;99783.38;5118700;28;8904;-85
2023/05/01 05:50:33;;;;;;;;;3.75;3.75;;;;;10.20;60.98;99776.59;5118228;28;8928;-85
2023/05/01 05:53:01;;;;;;;;;6.25;6.25;;;;;10.40;60.81;99771.34;5117887;28;8862;-86
2023/05/01 05:55:29;;;;;;;;;8.00;6.50;;;;;10.61;60.08;99766.91;5118884;28;9505;-86
2023/05/01 05:57:57;;;;;;;;;5.50;4.00;;;;;10.86;60.18;99765.75;5117937;28;8835;-85
2023/05/01 06:00:24;;;;;;;;;5.00;5.00;;;;;11.11;59.27;99766.22;5118061;28;8832;-85
2023/05/01 06:02:52;;;;;;;;;6.75;6.00;;;;;11.37;59.33;99761.34;5117828;28;8847;-86
2023/05/01 06:05:20;;;;;;;;;7.00;6.50;;;;;11.61;58.54;99761.91;5116871;28;8859;-86
2023/05/01 06:07:47;;;;;;;;;6.00;4.50;;;;;11.85;58.40;99767.78;5116247;28;8859;-86
2023/05/01 06:10:16;;;;;;;;;6.00;6.00;;;;;12.06;58.39;99761.38;5116756;28;9620;-86
2023/05/01 06:12:44;;;;;;;;;5.00;5.00;;;;;12.23;57.85;99758.91;5116475;28;8868;-86
2023/05/01 06:15:23;;;;;;;;;7.00;6.75;;;;;12.40;57.84;99757.41;5116813;28;8828;-86
2023/05/01 06:17:51;;;;;;;;;6.75;6.00;;;;;12.57;57.19;99757.59;5116823;28;8820;-85
2023/05/01 06:20:19;;;;;;;;;9.00;7.00;;;;;12.74;57.08;99758.69;5116869;28;8856;-86
2023/05/01 06:22:47;;;;;;;;;6.00;6.00;;;;;12.91;57.18;99755.34;5116389;28;8846;-86
2023/05/01 06:25:14;;;;;;;;;5.00;5.00;;;;;13.10;56.92;99760.69;5117047;28;9512;-86
2023/05/01 06:27:42;;;;;;;;;6.00;4.00;;;;;13.27;57.16;99754.59;5116830;28;8886;-86
2023/05/01 06:30:09;;;;;;;;;5.00;5.00;;;;;13.41;56.21;99755.03;5116914;28;8816;-86
2023/05/01 06:32:37;;;;;;;;;4.00;3.00;;;;;13.48;56.73;99752.59;5116637;28;8840;-86
2023/05/01 06:35:05;;;;;;;;;7.00;7.00;;;;;13.53;56.33;99753.84;5116555;28;8824;-86
2023/05/01 06:37:33;;;;;;;;;3.75;3.00;;;;;13.56;56.93;99753.56;5116544;28;8817;-86
2023/05/01 06:40:00;;;;;;;;;6.00;6.00;;;;;13.58;56.91;99756.09;5116694;28;8840;-85
2023/05/01 06:42:28;;;;;;;;;7.00;7.00;;;;;13.57;57.54;99751.72;5116429;28;9514;-86
2023/05/01 06:44:56;;;;;;;;;7.00;6.00;;;;;13.56;57.39;99753.56;5116568;28;8852;-86
2023/05/01 06:47:24;;;;;;;;;6.75;6.00;;;;;13.58;57.76;99751.59;5116306;28;8839;-86
2023/05/01 06:49:51;;;;;;;;;6.00;4.50;;;;;13.60;57.53;99749.59;5116571;28;8820;-87
2023/05/01 06:52:19;;;;;;;;;6.25;6.25;;;;;13.66;57.56;99748.19;5116700;28;8828;-86
2023/05/01 06:54:47;;;;;;;;;6.00;4.00;;;;;13.73;57.02;99750.13;5116335;28;8905;-86
2023/05/01 06:57:15;;;;;;;;;7.50;7.50;;;;;13.84;56.88;99755.31;5116304;28;8835;-85
2023/05/01 06:59:43;;;;;;;;;7.50;6.75;;;;;13.92;57.41;99744.72;5116413;28;8832;-86
2023/05/01 07:02:10;;;;;;;;;8.50;7.00;;;;;14.05;57.27;99744.34;5116852;28;8936;-87
2023/05/01 07:04:38;;;;;;;;;6.25;6.25;;;;;14.16;56.99;99745.00;5116766;28;8831;-86
2023/05/01 07:07:06;;;;;;;;;6.00;6.00;;;;;14.28;57.05;99734.97;5116558;28;8893;-86
2023/05/01 07:09:34;;;;;;;;;4.00;4.00;;;;;14.39;56.48;99734.72;5116744;28;8848;-86
2023/05/01 07:12:02;;;;;;;;;3.00;3.00;;;;;14.49;56.29;99738.22;5116307;28;8827;-86
2023/05/01 07:14:30;;;;;;;;;3.00;3.00;;;;;14.60;56.04;99730.78;5115689;28;8958;-86
2023/05/01 07:16:58;;;;;;;;;5.50;3.75;;;;;14.72;56.09;99729.53;5114931;28;8843;-86
2023/05/01 07:19:25;;;;;;;;;6.50;6.00;;;;;14.83;56.35;99729.34;5114782;28;8828;-86
2023/05/01 07:21:53;;;;;;;;;2.00;2.00;;;;;14.97;55.83;99734.16;5115996;28;8897;-86
2023/05/01 07:24:21;;;;;;;;;3.00;3.00;;;;;15.06;55.72;99727.84;5115996;28;8827;-86
2023/05/01 07:26:49;;;;;;;;;6.00;3.00;;;;;15.19;55.14;99722.06;5115910;28;8896;-87
2023/05/01 07:29:16;;;;;;;;;2.50;2.50;;;;;15.31;55.92;99729.75;5116159;28;8929;-87
2023/05/01 07:31:44;;;;;;;;;3.00;3.00;;;;;15.42;55.56;99729.50;5115874;28;8846;-87
2023/05/01 07:34:12;;;;;;;;;3.00;3.00;;;;;15.52;55.39;99724.00;5115892;28;8856;-86
2023/05/01 07:36:40;;;;;;;;;3.25;3.25;;;;;15.62;55.13;99727.44;5116133;28;8850;-87
2023/05/01 07:39:08;;;;;;;;;5.00;5.00;;;;;15.74;55.14;99728.81;5116114;28;9505;-86
2023/05/01 07:41:35;;;;;;;;;6.00;4.00;;;;;15.84;54.74;99729.56;5116210;28;9517;-86
2023/05/01 07:44:03;;;;;;;;;0.75;0.50;;;;;15.95;54.61;99723.91;5119567;28;8843;-85
2023/05/01 07:46:32;;;;;;;;;3.00;3.00;;;;;16.05;54.38;99720.09;5122919;28;8812;-86
2023/05/01 07:49:00;;;;;;;;;5.50;4.50;;;;;16.18;54.01;99717.78;5123542;28;8816;-85
2023/05/01 07:51:27;;;;;;;;;6.00;6.00;;;;;16.30;54.20;99722.69;5122987;28;8852;-85
2023/05/01 07:53:55;;;;;;;;;6.00;6.00;;;;;16.44;53.48;99718.56;5122886;28;8832;-85
2023/05/01 07:56:23;;;;;;;;;4.50;4.50;;;;;16.58;53.65;99716.09;5122914;28;8836;-86
2023/05/01 07:58:52;;;;;;;;;4.00;4.00;;;;;16.70;53.40;99717.44;5122754;28;8820;-85
2023/05/01 08:01:19;;;;;;;;;5.50;4.00;;;;;16.86;53.55;99714.75;5123215;28;8848;-86
2023/05/01 08:03:47;;;;;;;;;4.00;4.00;;;;;17.00;52.92;99713.28;5123231;28;8950;-86
2023/05/01 08:06:17;;;;;;;;;3.25;3.00;;;;;17.18;52.65;99712.09;5123635;28;8859;-86
2023/05/01 08:08:45;;;;;;;;;4.00;3.50;;;;;17.33;52.31;99715.75;5131452;28;8864;-86
2023/05/01 08:11:13;;;;;;;;;4.00;4.00;;;;;17.50;51.90;99708.53;5132443;28;8832;-85
2023/05/01 08:13:40;;;;;;;;;4.00;4.00;;;;;17.66;51.80;99711.16;5117470;28;8856;-85
2023/05/01 08:16:08;;;;;;;;;4.80;4.00;;;;;17.74;51.76;99712.00;5117947;28;8847;-86
2023/05/01 08:18:36;;;;;;;;;4.40;4.00;;;;;17.81;51.84;99713.00;5117949;28;8827;-85
2023/05/01 08:21:04;;;;;;;;;3.00;3.00;;;;;17.87;51.34;99709.59;5118079;28;8823;-85
2023/05/01 08:23:32;;;;;;;;;4.00;4.00;;;;;17.90;51.85;99708.44;5117448;28;8854;-85
2023/05/01 08:25:59;;;;;;;;;4.00;4.00;;;;;17.91;51.95;99705.53;5117367;28;9503;-85
2023/05/01 08:28:27;;;;;;;;;4.00;4.00;;;;;18.00;51.90;99707.19;5121592;28;9602;-85
2023/05/01 08:30:55;;;;;;;;;4.00;3.00;;;;;18.14;51.39;99697.53;5121965;28;8846;-85
2023/05/01 08:33:23;;;;;;;;;4.00;3.20;;;;;18.31;51.38;99693.75;5121861;28;8847;-85
2023/05/01 08:35:51;;;;;;;;;4.80;3.60;;;;;18.47;50.63;99694.53;5122626;28;8847;-86
2023/05/01 08:38:19;;;;;;;;;6.00;4.00;;;;;18.58;50.67;99695.97;5123501;28;8858;-85
2023/05/01 08:40:47;;;;;;;;;3.60;3.60;;;;;18.62;50.32;99695.44;5122360;28;8855;-86
2023/05/01 08:43:15;;;;;;;;;3.00;3.00;;;;;18.68;50.55;99696.56;5123649;28;8860;-86
2023/05/01 08:45:42;;;;;;;;;4.00;4.00;;;;;18.77;50.36;99696.34;5117724;28;8954;-86
2023/05/01 08:48:10;;;;;;;;;4.20;4.20;;;;;18.85;49.95;99693.56;5117982;28;8831;-86
2023/05/01 08:50:38;;;;;;;;;5.20;5.20;;;;;18.97;50.18;99700.22;5118003;28;8851;-86
2023/05/01 08:53:06;;;;;;;;;3.60;3.60;;;;;19.08;49.80;99690.84;5118035;28;8973;-86
2023/05/01 08:55:34;;;;;;;;;2.20;2.20;;;;;19.27;49.76;99691.19;5117346;28;8840;-86
2023/05/01 08:58:02;;;;;;;;;5.80;4.00;;;;;19.42;49.24;99686.66;5118136;28;8958;-86
2023/05/01 09:00:33;;;;;;;;;5.20;4.40;;;;;19.62;49.02;99685.09;5117175;28;8928;-86
2023/05/01 09:03:01;;;;;;;;;5.20;5.20;;;;;19.74;48.93;99686.34;5117545;28;8855;-86
2023/05/01 09:05:29;;;;;;;;;4.00;4.00;;;;;19.84;48.64;99686.88;5117720;28;8924;-86
2023/05/01 09:07:57;;;;;;;;;4.80;4.00;;;;;19.91;48.72;99682.41;5116779;28;8851;-86
2023/05/01 09:10:25;;;;;;;;;4.20;4.20;;;;;19.94;48.48;99678.50;5116434;28;9497;-86
2023/05/01 09:12:53;;;;;;;;;4.80;4.40;;;;;19.97;48.54;99675.41;5116951;28;8827;-86
2023/05/01 09:15:21;;;;;;;;;2.00;2.00;;;;;19.96;48.76;99669.16;5117045;28;8962;-86
2023/05/01 09:17:48;;;;;;;;;5.40;4.40;;;;;19.97;48.41;99681.66;5116417;28;8848;-86
2023/05/01 09:20:16;;;;;;;;;4.80;4.80;;;;;19.97;49.11;99676.25;5115635;28;8921;-86
2023/05/01 09:22:44;;;;;;;;;4.00;4.00;;;;;19.95;48.89;99681.00;5116021;28;8836;-86
2023/05/01 09:25:14;;;;;;;;;4.00;3.20;;;;;19.98;49.00;99672.53;5116205;28;8852;-86
2023/05/01 09:27:42;;;;;;;;;4.40;4.40;;;;;19.97;48.59;99668.16;5115626;28;8836;-86
2023/05/01 09:30:09;;;;;;;;;5.00;5.00;;;;;20.00;49.13;99670.47;5116016;28;8832;-86
2023/05/01 09:32:37;;;;;;;;;5.00;5.00;;;;;20.04;49.03;99671.75;5116305;28;8842;-86
2023/05/01 09:35:08;;;;;;;;;4.00;4.00;;;;;20.10;48.76;99675.63;5115501;28;8899;-86
2023/05/01 09:37:36;;;;;;;;;2.00;2.00;;;;;20.14;48.95;99675.03;5114030;28;8864;-86
2023/05/01 09:40:04;;;;;;;;;4.40;4.20;;;;;20.21;48.91;99678.66;5114484;28;8851;-86
2023/05/01 09:42:32;;;;;;;;;4.80;4.40;;;;;20.30;48.75;99679.38;5115057;28;8835;-86
2023/05/01 09:45:00;;;;;;;;;2.80;2.80;;;;;20.46;48.27;99673.75;5114942;28;8827;-86
2023/05/01 09:47:28;;;;;;;;;5.40;5.40;;;;;20.80;48.11;99669.34;5115235;28;8847;-86
2023/05/01 09:49:58;;;;;;;;;2.80;2.80;;;;;21.31;47.27;99668.13;5119783;28;8836;-86
2023/05/01 09:52:26;;;;;;;;;6.20;6.20;;;;;21.86;46.71;99657.28;5119194;28;9319;-86
2023/05/01 09:54:54;;;;;;;;;4.00;2.80;;;;;22.26;45.92;99661.84;5118404;28;8850;-86
2023/05/01 09:57:22;;;;;;;;;2.00;2.00;;;;;22.87;45.00;99658.91;5117066;28;8836;-85
2023/05/01 09:59:50;;;;;;;;;2.40;2.40;;;;;23.52;44.52;99661.63;5116578;28;8908;-86
2023/05/01 10:02:18;;;;;;;;;4.80;4.40;;;;;24.06;43.36;99653.97;5117129;28;8827;-86
2023/05/01 10:04:47;;;;;;;;;4.60;4.40;;;;;24.50;42.79;99655.88;5115420;28;9347;-86
2023/05/01 10:07:15;;;;;;;;;4.80;4.80;;;;;24.83;42.79;99651.09;5114253;28;8844;-86
2023/05/01 10:09:43;;;;;;;;;3.20;3.00;;;;;25.13;42.59;99654.84;5115619;28;8874;-86
2023/05/01 10:12:10;;;;;;;;;5.00;5.00;;;;;25.45;41.66;99645.56;5115036;28;9153;-86
2023/05/01 10:14:39;;;;;;;;;5.00;5.00;;;;;25.58;42.17;99640.84;5115639;28;8835;-86
2023/05/01 10:17:06;;;;;;;;;7.00;5.00;;;;;25.63;41.51;99647.28;5114869;28;8828;-87
2023/05/01 10:19:34;;;;;;;;;4.60;4.60;;;;;25.42;42.53;99648.75;5115204;28;9656;-86
2023/05/01 10:22:02;;;;;;;;;4.20;4.20;;;;;24.95;43.05;99650.16;5116086;28;8836;-86
2023/05/01 10:24:30;;;;;;;;;3.40;2.00;;;;;24.42;44.41;99639.78;5115611;28;8900;-86
2023/05/01 10:26:58;;;;;;;;;2.00;2.00;;;;;23.84;44.60;99649.84;5115347;28;8840;-86
2023/05/01 10:29:26;;;;;;;;;3.40;2.60;;;;;23.39;45.85;99652.66;5114857;28;8863;-86
2023/05/01 10:31:54;;;;;;;;;3.80;3.80;;;;;23.08;46.16;99650.53;5114903;28;8844;-86
2023/05/01 10:34:22;;;;;;;;;5.00;3.20;;;;;22.95;46.32;99646.97;5115550;28;8839;-86
2023/05/01 10:36:53;;;;;;;;;3.40;3.40;;;;;22.84;46.08;99643.00;5115902;28;8836;-86
2023/05/01 10:39:22;;;;;;;;;3.20;3.20;;;;;22.82;46.54;99647.81;5115409;28;9567;-86
2023/05/01 10:41:49;;;;;;;;;4.80;2.00;;;;;22.63;46.56;99648.59;5115364;28;8854;-86
2023/05/01 10:44:17;;;;;;;;;2.00;2.00;;;;;22.38;46.97;99642.03;5118975;28;8836;-87
2023/05/01 10:46:45;;;;;;;;;2.80;2.80;;;;;22.15;46.80;99649.69;5119556;28;9630;-86
2023/05/01 10:49:13;;;;;;;;;3.60;3.60;;;;;21.88;47.52;99647.88;5117284;28;8883;-87
2023/05/01 10:51:42;;;;;;;;;1.00;1.00;;;;;21.68;48.18;99637.97;5115850;28;8847;-86
2023/05/01 10:54:10;;;;;;;;;1.00;1.00;;;;;21.56;48.04;99639.56;5115563;28;8905;-86
2023/05/01 10:56:38;;;;;;;;;4.00;4.00;;;;;21.51;47.60;99636.59;5115241;28;8970;-86
2023/05/01 10:59:06;;;;;;;;;1.60;1.20;;;;;21.42;47.73;99649.44;5114215;28;8843;-86
2023/05/01 11:01:34;;;;;;;;;4.80;4.00;;;;;21.39;47.58;99643.59;5115616;28;8924;-86
2023/05/01 11:04:03;;;;;;;;;2.80;2.80;;;;;21.30;47.81;99639.38;5114817;28;8852;-86
2023/05/01 11:06:30;;;;;;;;;3.60;2.00;;;;;21.21;48.21;99645.97;5111926;28;8840;-86
2023/05/01 11:08:58;;;;;;;;;5.00;4.40;;;;;21.12;48.08;99631.72;5111804;28;8860;-86
2023/05/01 11:11:26;;;;;;;;;2.80;2.40;;;;;21.06;48.36;99637.09;5111728;28;8820;-86
2023/05/01 11:13:54;;;;;;;;;2.00;2.00;;;;;21.07;47.76;99639.63;5111863;28;8928;-86
2023/05/01 11:16:23;;;;;;;;;5.40;5.00;;;;;21.09;48.18;99632.13;5112380;28;8835;-87
2023/05/01 11:18:51;;;;;;;;;2.80;2.80;;;;;21.18;48.02;99630.94;5111702;28;8828;-87
2023/05/01 11:21:19;;;;;;;;;4.00;3.60;;;;;21.33;47.55;99636.28;5112131;28;8948;-86
2023/05/01 11:23:47;;;;;;;;;2.80;2.00;;;;;21.45;47.21;99619.25;5117016;28;8990;-87
2023/05/01 11:26:15;;;;;;;;;4.00;4.00;;;;;21.41;46.81;99626.09;5122213;28;8839;-86
2023/05/01 11:28:43;;;;;;;;;4.20;4.20;;;;;21.31;47.35;99630.19;5116101;28;8836;-86
2023/05/01 11:31:11;;;;;;;;;2.00;2.00;;;;;21.28;47.17;99628.75;5112889;28;8871;-86
2023/05/01 11:33:40;;;;;;;;;4.40;4.00;;;;;21.32;46.92;99635.44;5113137;28;8847;-86
2023/05/01 11:36:08;;;;;;;;;4.40;4.40;;;;;21.33;47.34;99630.84;5113206;28;8859;-86
2023/05/01 11:38:35;;;;;;;;;3.60;3.60;;;;;21.28;46.97;99642.28;5113797;28;8852;-86
2023/05/01 11:41:04;;;;;;;;;1.60;1.60;;;;;21.17;47.44;99637.41;5113641;28;8847;-86
2023/05/01 11:43:32;;;;;;;;;3.20;2.00;;;;;21.04;47.65;99636.47;5114612;28;8840;-86
2023/05/01 11:46:03;;;;;;;;;2.80;2.00;;;;;20.98;47.42;99634.53;5113959;28;8844;-86